createdAt,value
2022-12-08T00:02:42.565Z,90.61
2022-12-08T00:06:05.129Z,90.14
2022-12-08T00:09:24.221Z,89.95
2022-12-08T00:12:26.639Z,90.60
2022-12-08T00:15:29.051Z,90.22
2022-12-08T00:18:31.439Z,91.00
2022-12-08T00:21:33.903Z,90.74
2022-12-08T00:24:39.751Z,90.30
2022-12-08T00:27:42.363Z,90.96
2022-12-08T00:30:45.028Z,90.60
2022-12-08T00:33:47.459Z,90.29
2022-12-08T00:36:49.880Z,90.38
2022-12-08T00:39:52.255Z,89.96
2022-12-08T00:42:54.666Z,89.79
2022-12-08T00:45:57.098Z,90.51
2022-12-08T00:48:59.645Z,89.40
2022-12-08T00:52:02.104Z,88.96
2022-12-08T00:55:06.191Z,89.90
2022-12-08T00:58:08.639Z,89.83
2022-12-08T01:01:11.934Z,90.15
2022-12-08T01:04:18.141Z,89.58
2022-12-08T01:07:20.677Z,89.04
2022-12-08T01:10:23.573Z,89.52
2022-12-08T01:13:25.972Z,89.09
2022-12-08T01:16:33.675Z,88.08
2022-12-08T01:19:37.868Z,88.16
2022-12-08T01:22:40.400Z,87.54
2022-12-08T01:25:42.777Z,87.76
2022-12-08T01:28:46.087Z,87.99
2022-12-08T01:31:48.538Z,88.77
2022-12-08T01:34:50.991Z,88.98
2022-12-08T01:37:53.335Z,87.56
2022-12-08T01:40:55.815Z,88.43
2022-12-08T01:43:58.212Z,88.74
2022-12-08T01:47:00.703Z,88.23
2022-12-08T01:50:06.979Z,87.50
2022-12-08T01:53:14.546Z,87.72
2022-12-08T01:56:29.812Z,88.75
2022-12-08T01:59:38.233Z,90.07
2022-12-08T02:03:19.029Z,89.95
2022-12-08T02:06:21.640Z,89.47
2022-12-08T02:09:24.666Z,89.15
2022-12-08T02:12:27.188Z,89.17
2022-12-08T02:15:38.916Z,89.81
2022-12-08T02:19:30.426Z,89.80
2022-12-08T02:22:46.502Z,88.74
2022-12-08T02:26:01.244Z,88.64
2022-12-08T02:29:12.607Z,88.59
2022-12-08T02:32:55.589Z,88.39
2022-12-08T02:36:04.258Z,88.01
2022-12-08T02:39:15.725Z,88.67
2022-12-08T02:42:28.115Z,87.16
2022-12-08T02:45:36.849Z,86.40
2022-12-08T02:48:39.454Z,87.05
2022-12-08T02:51:41.870Z,87.94
2022-12-08T02:54:50.728Z,88.35
2022-12-08T02:57:58.964Z,89.46
2022-12-08T03:01:29.242Z,89.21
2022-12-08T03:04:47.180Z,89.30
2022-12-08T03:08:11.441Z,89.48
2022-12-08T03:11:23.401Z,90.32
2022-12-08T03:14:26.187Z,90.26
2022-12-08T03:17:31.208Z,89.57
2022-12-08T03:20:35.487Z,89.39
2022-12-08T03:23:39.527Z,88.96
2022-12-08T03:27:00.219Z,88.43
2022-12-08T03:30:03.233Z,87.73
2022-12-08T03:33:30.930Z,88.41
2022-12-08T03:36:33.802Z,89.14
2022-12-08T03:39:36.247Z,88.62
2022-12-08T03:42:38.728Z,88.21
2022-12-08T03:45:41.157Z,89.48
2022-12-08T03:48:43.709Z,89.54
2022-12-08T03:51:46.156Z,89.35
2022-12-08T03:54:48.666Z,89.44
2022-12-08T03:57:51.044Z,89.56
2022-12-08T04:00:53.420Z,89.18
2022-12-08T04:03:55.977Z,88.78
2022-12-08T04:06:58.465Z,88.60
2022-12-08T04:10:00.874Z,87.75
2022-12-08T04:13:03.434Z,88.07
2022-12-08T04:16:06.963Z,88.44
2022-12-08T04:19:15.398Z,88.65
2022-12-08T04:22:17.831Z,88.75
2022-12-08T04:25:20.235Z,89.04
2022-12-08T04:28:22.983Z,90.44
2022-12-08T04:31:25.576Z,90.83
2022-12-08T04:34:27.979Z,90.55
2022-12-08T04:37:30.389Z,91.02
2022-12-08T04:40:33.616Z,92.04
2022-12-08T04:43:36.973Z,92.27
2022-12-08T04:46:43.418Z,92.73
2022-12-08T04:49:46.367Z,92.50
2022-12-08T04:52:48.789Z,92.85
2022-12-08T04:55:51.314Z,92.55
2022-12-08T04:58:54.464Z,92.89
2022-12-08T05:01:57.293Z,93.16
2022-12-08T05:05:00.200Z,93.50
2022-12-08T05:08:02.744Z,93.42
2022-12-08T05:11:06.810Z,93.75
2022-12-08T05:14:12.009Z,92.96
2022-12-08T05:17:15.763Z,92.24
2022-12-08T05:20:18.183Z,92.08
2022-12-08T05:23:21.196Z,92.12
2022-12-08T05:26:23.591Z,92.00
2022-12-08T05:29:26.174Z,92.10
2022-12-08T05:32:28.615Z,92.52
2022-12-08T05:35:31.000Z,92.46
2022-12-08T05:38:33.436Z,92.02
2022-12-08T05:41:35.843Z,92.45
2022-12-08T05:44:38.316Z,92.49
2022-12-08T05:47:40.763Z,91.91
2022-12-08T05:50:50.425Z,91.73
2022-12-08T05:53:53.549Z,90.98
2022-12-08T05:56:56.013Z,90.92
2022-12-08T05:59:59.603Z,90.97
2022-12-08T06:03:02.503Z,90.92
2022-12-08T06:06:05.149Z,89.88
2022-12-08T06:09:09.064Z,89.42
2022-12-08T06:12:12.102Z,89.06
2022-12-08T06:15:14.570Z,88.44
2022-12-08T06:18:17.018Z,87.76
2022-12-08T06:21:20.026Z,87.72
2022-12-08T06:24:22.773Z,87.62
2022-12-08T06:27:25.364Z,87.04
2022-12-08T06:30:28.750Z,85.33
2022-12-08T06:33:31.366Z,87.11
2022-12-08T06:36:34.740Z,86.94
2022-12-08T06:39:37.348Z,88.54
2022-12-08T06:42:43.817Z,89.64
2022-12-08T06:45:46.297Z,90.33
2022-12-08T06:48:50.663Z,90.49
2022-12-08T06:51:53.207Z,89.99
2022-12-08T06:54:55.666Z,89.29
2022-12-08T06:57:58.150Z,89.82
2022-12-08T07:01:05.616Z,89.20
2022-12-08T07:04:08.443Z,89.74
2022-12-08T07:07:10.885Z,89.51
2022-12-08T07:10:13.736Z,89.30
2022-12-08T07:13:16.346Z,88.71
2022-12-08T07:16:19.057Z,87.80
2022-12-08T07:19:22.030Z,87.18
2022-12-08T07:22:24.763Z,86.71
2022-12-08T07:25:28.410Z,85.94
2022-12-08T07:28:32.791Z,86.37
2022-12-08T07:31:35.283Z,86.49
2022-12-08T07:34:38.092Z,85.53
2022-12-08T07:37:41.125Z,85.24
2022-12-08T07:40:43.662Z,85.81
2022-12-08T07:43:46.708Z,85.68
2022-12-08T07:46:49.094Z,85.15
2022-12-08T07:49:51.570Z,92.81
2022-12-08T07:52:54.120Z,85.84
2022-12-08T07:55:56.579Z,82.27
2022-12-08T07:58:59.025Z,85.94
2022-12-08T08:02:22.833Z,82.58
2022-12-08T08:05:24.118Z,80.24
2022-12-08T08:08:26.665Z,77.61
2022-12-08T08:11:29.322Z,63.52
2022-12-08T08:14:31.840Z,70.25
2022-12-08T08:17:36.458Z,77.80
2022-12-08T08:20:39.100Z,81.60
2022-12-08T08:23:41.676Z,83.68
2022-12-08T08:26:44.225Z,85.75
2022-12-08T08:29:46.796Z,85.51
2022-12-08T08:32:49.998Z,86.70
2022-12-08T08:35:52.462Z,86.21
2022-12-08T08:38:54.915Z,85.74
2022-12-08T08:41:57.848Z,86.37
2022-12-08T08:45:00.248Z,86.80
2022-12-08T08:48:02.855Z,86.65
2022-12-08T08:51:10.722Z,87.11
2022-12-08T08:54:13.238Z,86.42
2022-12-08T08:57:18.421Z,86.95
2022-12-08T09:00:23.216Z,86.69
2022-12-08T09:03:25.757Z,86.79
2022-12-08T09:06:28.709Z,86.00
2022-12-08T09:09:31.548Z,85.69
2022-12-08T09:12:34.033Z,85.75
2022-12-08T09:15:36.568Z,86.42
2022-12-08T09:18:39.159Z,83.54
2022-12-08T09:21:41.628Z,82.76
2022-12-08T09:24:44.126Z,82.93
2022-12-08T09:27:46.632Z,83.47
2022-12-08T09:30:51.764Z,81.78
2022-12-08T09:33:54.399Z,82.17
2022-12-08T09:36:57.203Z,82.01
2022-12-08T09:40:00.246Z,81.64
2022-12-08T09:43:21.375Z,82.00
2022-12-08T09:46:29.033Z,83.22
2022-12-08T09:49:43.030Z,83.41
2022-12-08T09:53:08.518Z,83.61
2022-12-08T09:56:18.900Z,82.47
2022-12-08T09:59:30.555Z,81.77
2022-12-08T10:02:33.113Z,82.05
2022-12-08T10:05:41.653Z,81.93
2022-12-08T10:09:21.175Z,82.36
2022-12-08T10:12:40.728Z,82.48
2022-12-08T10:16:14.022Z,81.40
2022-12-08T10:19:24.464Z,80.28
2022-12-08T10:22:33.682Z,81.44
2022-12-08T10:25:48.720Z,80.60
2022-12-08T10:28:51.803Z,80.19
2022-12-08T10:31:57.181Z,79.64
2022-12-08T10:35:11.163Z,78.83
2022-12-08T10:38:37.622Z,78.79
2022-12-08T10:41:40.732Z,79.81
2022-12-08T10:45:10.546Z,79.19
2022-12-08T10:48:21.287Z,78.53
2022-12-08T10:51:34.539Z,77.11
2022-12-08T10:54:42.048Z,78.11
2022-12-08T10:57:45.141Z,77.66
2022-12-08T11:00:48.143Z,77.49
2022-12-08T11:04:05.598Z,77.41
2022-12-08T11:07:13.355Z,76.44
2022-12-08T11:10:19.012Z,76.31
2022-12-08T11:13:24.545Z,76.56
2022-12-08T11:16:28.097Z,76.71
2022-12-08T11:19:30.914Z,75.83
2022-12-08T11:22:37.163Z,75.97
2022-12-08T11:25:40.248Z,76.17
2022-12-08T11:28:43.098Z,76.22
2022-12-08T11:31:54.772Z,77.40
2022-12-08T11:35:06.721Z,77.21
2022-12-08T11:38:22.996Z,78.15
2022-12-08T11:41:42.020Z,78.13
2022-12-08T11:44:59.053Z,79.34
2022-12-08T11:48:17.623Z,78.77
2022-12-08T11:51:33.464Z,77.58
2022-12-08T11:54:46.003Z,77.64
2022-12-08T11:57:49.128Z,79.55
2022-12-08T12:00:51.897Z,79.62
2022-12-08T12:04:22.869Z,78.95
2022-12-08T12:07:43.816Z,77.18
2022-12-08T12:11:04.846Z,77.79
2022-12-08T12:14:32.528Z,78.57
2022-12-08T12:17:54.196Z,77.91
2022-12-08T12:21:08.182Z,77.85
2022-12-08T12:24:23.931Z,77.97
2022-12-08T12:27:37.551Z,76.50
2022-12-08T12:31:03.065Z,77.41
2022-12-08T12:34:17.066Z,78.04
2022-12-08T12:37:42.093Z,81.02
2022-12-08T12:40:44.693Z,81.53
2022-12-08T12:44:09.271Z,82.31
2022-12-08T12:47:14.733Z,81.85
2022-12-08T12:50:38.723Z,81.14
2022-12-08T12:53:41.088Z,80.45
2022-12-08T12:56:49.082Z,80.22
2022-12-08T12:59:55.226Z,81.04
2022-12-08T13:02:59.237Z,79.87
2022-12-08T13:06:02.690Z,79.13
2022-12-08T13:09:07.312Z,79.75
2022-12-08T13:12:18.077Z,79.90
2022-12-08T13:15:21.030Z,79.23
2022-12-08T13:18:26.122Z,78.91
2022-12-08T13:21:36.063Z,79.00
2022-12-08T13:24:38.615Z,78.50
2022-12-08T13:27:52.517Z,78.24
2022-12-08T13:30:59.840Z,77.57
2022-12-08T13:34:06.787Z,76.95
2022-12-08T13:37:12.324Z,77.15
2022-12-08T13:40:20.943Z,76.50
2022-12-08T13:43:38.797Z,76.43
2022-12-08T13:47:17.170Z,76.14
2022-12-08T13:57:28.798Z,77.70
2022-12-08T14:00:31.791Z,77.62
2022-12-08T14:04:12.431Z,77.57
2022-12-08T14:07:10.223Z,77.98
2022-12-08T14:10:28.448Z,78.87
2022-12-08T14:13:33.231Z,79.92
2022-12-08T14:16:57.369Z,80.29
2022-12-08T14:20:11.947Z,80.19
2022-12-08T14:23:17.457Z,79.95
2022-12-08T14:26:19.913Z,81.39
2022-12-08T14:29:36.716Z,82.15
2022-12-08T14:32:49.742Z,81.89
2022-12-08T14:35:55.002Z,82.38
2022-12-08T14:38:57.711Z,83.25
2022-12-08T14:42:06.553Z,83.67
2022-12-08T14:45:15.075Z,83.74
2022-12-08T14:48:20.527Z,83.19
2022-12-08T14:51:31.900Z,82.91
2022-12-08T14:54:34.531Z,82.19
2022-12-08T14:57:37.037Z,81.74
2022-12-08T15:00:46.471Z,81.31
2022-12-08T15:03:51.454Z,80.92
2022-12-08T15:06:57.220Z,80.97
2022-12-08T15:10:29.526Z,80.90
2022-12-08T15:13:32.071Z,81.02
2022-12-08T15:16:34.485Z,80.84
2022-12-08T15:19:37.019Z,80.86
2022-12-08T15:22:39.452Z,80.78
2022-12-08T15:25:41.914Z,80.49
2022-12-08T15:28:44.321Z,80.57
2022-12-08T15:31:47.030Z,80.39
2022-12-08T15:34:50.016Z,80.06
2022-12-08T15:37:52.504Z,80.19
2022-12-08T15:40:56.420Z,80.36
2022-12-08T15:43:58.773Z,80.38
2022-12-08T15:47:01.866Z,80.26
2022-12-08T15:50:05.480Z,80.53
2022-12-08T15:53:12.528Z,80.24
2022-12-08T15:56:30.385Z,80.00
2022-12-08T15:59:32.880Z,79.70
2022-12-08T16:03:04.928Z,79.66
2022-12-08T16:06:50.943Z,79.81
2022-12-08T16:09:32.829Z,79.90
2022-12-08T16:16:21.500Z,79.80
2022-12-08T16:19:23.961Z,80.10
2022-12-08T16:26:20.278Z,80.33
2022-12-08T16:29:19.754Z,80.04
2022-12-08T16:32:22.495Z,79.74
2022-12-08T16:35:24.972Z,79.81
2022-12-08T16:38:27.462Z,79.44
2022-12-08T16:41:48.504Z,78.63
2022-12-08T16:44:51.145Z,78.66
2022-12-08T16:48:00.751Z,78.23
2022-12-08T16:51:04.629Z,78.16
2022-12-08T16:54:07.143Z,78.01
2022-12-08T16:57:09.553Z,78.07
2022-12-08T17:00:18.150Z,77.99
2022-12-08T17:03:21.027Z,77.74
2022-12-08T17:06:23.527Z,77.16
2022-12-08T17:09:26.970Z,77.16
2022-12-08T17:12:29.624Z,77.07
2022-12-08T17:15:32.053Z,76.96
2022-12-08T17:18:34.859Z,76.56
2022-12-08T17:21:37.530Z,76.56
2022-12-08T17:24:40.081Z,76.47
2022-12-08T17:27:42.750Z,76.05
2022-12-08T17:30:45.320Z,76.69
2022-12-08T17:33:48.026Z,77.01
2022-12-08T17:36:50.969Z,76.12
2022-12-08T17:39:53.417Z,76.03
2022-12-08T17:42:55.985Z,76.51
2022-12-08T17:45:58.660Z,76.53
2022-12-08T17:49:01.265Z,75.98
2022-12-08T17:52:06.917Z,76.42
2022-12-08T17:55:10.124Z,76.12
2022-12-08T17:58:12.894Z,75.61
2022-12-08T18:01:15.448Z,75.02
2022-12-08T18:04:18.362Z,75.56
2022-12-08T18:07:20.900Z,75.29
2022-12-08T18:10:23.410Z,75.41
2022-12-08T18:13:26.149Z,74.98
2022-12-08T18:16:29.030Z,75.03
2022-12-08T18:19:31.746Z,75.04
2022-12-08T18:22:34.973Z,75.10
2022-12-08T18:25:37.506Z,75.24
2022-12-08T18:28:41.074Z,74.80
2022-12-08T18:31:44.207Z,74.13
2022-12-08T18:34:46.724Z,74.73
2022-12-08T18:37:49.334Z,74.79
2022-12-08T18:40:51.939Z,74.70
2022-12-08T18:43:57.037Z,74.29
2022-12-08T18:46:59.649Z,74.62
2022-12-08T18:50:02.777Z,74.86
2022-12-08T18:53:05.645Z,74.57
2022-12-08T18:56:09.460Z,74.42
2022-12-08T18:59:13.191Z,74.34
2022-12-08T19:02:16.217Z,74.19
2022-12-08T19:05:20.279Z,74.17
2022-12-08T19:08:28.166Z,74.63
2022-12-08T19:11:33.648Z,74.67
2022-12-08T19:14:36.277Z,75.16
2022-12-08T19:17:38.863Z,75.38
2022-12-08T19:20:41.301Z,75.81
2022-12-08T19:23:44.438Z,75.17
2022-12-08T19:26:46.906Z,75.71
2022-12-08T19:29:49.459Z,76.38
2022-12-08T19:32:52.111Z,77.33
2022-12-08T19:35:54.693Z,77.39
2022-12-08T19:39:15.984Z,77.96
2022-12-08T19:42:39.351Z,77.83
2022-12-08T19:45:44.101Z,77.63
2022-12-08T19:48:46.916Z,77.73
2022-12-08T19:51:49.563Z,77.70
2022-12-08T19:54:52.398Z,78.05
2022-12-08T19:57:56.773Z,76.83
2022-12-08T20:00:59.511Z,76.36
2022-12-08T20:04:01.953Z,76.10
2022-12-08T20:07:04.508Z,75.50
2022-12-08T20:10:14.458Z,75.77
2022-12-08T20:13:35.655Z,75.38
2022-12-08T20:16:38.313Z,75.21
2022-12-08T20:19:41.384Z,75.93
2022-12-08T20:22:45.343Z,76.36
2022-12-08T20:25:48.317Z,76.07
2022-12-08T20:28:57.846Z,76.02
2022-12-08T20:32:00.671Z,76.41
2022-12-08T20:35:03.984Z,76.21
2022-12-08T20:38:06.989Z,76.55
2022-12-08T20:41:10.235Z,76.79
2022-12-08T20:44:12.750Z,75.80
2022-12-08T20:47:16.163Z,75.59
2022-12-08T20:50:19.022Z,75.93
2022-12-08T20:53:21.913Z,76.04
2022-12-08T20:56:25.728Z,75.03
2022-12-08T20:59:28.857Z,75.41
2022-12-08T21:02:31.542Z,76.27
2022-12-08T21:05:36.272Z,76.02
2022-12-08T21:08:39.388Z,76.26
2022-12-08T21:11:42.177Z,75.79
2022-12-08T21:14:45.191Z,75.63
2022-12-08T21:17:48.045Z,76.54
2022-12-08T21:20:51.650Z,76.24
2022-12-08T21:23:54.489Z,75.91
2022-12-08T21:26:57.146Z,77.43
2022-12-08T21:29:59.740Z,77.54
2022-12-08T21:33:02.244Z,78.03
2022-12-08T21:36:12.107Z,78.58
2022-12-08T21:39:14.652Z,78.55
2022-12-08T21:42:35.883Z,78.13
2022-12-08T21:45:39.691Z,79.14
2022-12-08T21:48:42.211Z,79.44
2022-12-08T21:51:44.744Z,80.57
2022-12-08T21:54:47.407Z,81.40
2022-12-08T21:57:49.897Z,81.17
2022-12-08T22:00:52.628Z,80.97
2022-12-08T22:03:55.817Z,81.14
2022-12-08T22:06:58.432Z,80.63
2022-12-08T22:10:01.070Z,80.17
2022-12-08T22:13:03.992Z,79.01
2022-12-08T22:16:08.722Z,79.58
2022-12-08T22:19:12.200Z,80.16
2022-12-08T22:22:16.204Z,80.30
2022-12-08T22:25:18.787Z,80.44
2022-12-08T22:28:21.165Z,80.96
2022-12-08T22:31:23.657Z,80.54
2022-12-08T22:34:26.237Z,80.97
2022-12-08T22:37:28.875Z,81.54
2022-12-08T22:40:31.283Z,81.87
2022-12-08T22:43:34.200Z,81.29
2022-12-08T22:46:37.017Z,81.83
2022-12-08T22:49:39.473Z,81.28
2022-12-08T22:52:42.226Z,81.44
2022-12-08T22:55:45.125Z,81.70
2022-12-08T22:58:48.290Z,81.04
2022-12-08T23:01:51.465Z,80.59
2022-12-08T23:04:57.582Z,81.81
2022-12-08T23:08:00.514Z,81.45
2022-12-08T23:11:02.957Z,82.34
2022-12-08T23:14:05.420Z,82.05
2022-12-08T23:17:08.186Z,82.88
2022-12-08T23:20:11.758Z,82.48
2022-12-08T23:23:15.043Z,82.62
2022-12-08T23:26:22.098Z,82.62
2022-12-08T23:29:24.680Z,81.96
2022-12-08T23:32:27.479Z,81.52
2022-12-08T23:35:29.999Z,81.08
2022-12-08T23:38:33.110Z,81.00
2022-12-08T23:41:35.541Z,81.15
2022-12-08T23:44:38.093Z,81.08
2022-12-08T23:47:40.609Z,81.09
2022-12-08T23:50:43.095Z,81.08
2022-12-08T23:53:45.989Z,81.34
2022-12-08T23:56:48.460Z,81.75
2022-12-08T23:59:50.942Z,82.35
